createdAt,value
2022-07-28T04:30:55.026Z,95036.00
2022-07-28T04:35:57.110Z,95029.00
2022-07-28T04:40:59.116Z,95044.00
2022-07-28T04:46:01.162Z,95033.00
2022-07-28T04:51:03.319Z,95025.00
2022-07-28T04:56:05.653Z,95021.00
2022-07-28T05:01:07.686Z,95031.00
2022-07-28T05:06:09.687Z,95047.00
2022-07-28T05:11:11.696Z,95055.00
2022-07-28T05:16:13.805Z,95044.00
2022-07-28T05:21:15.915Z,95031.00
2022-07-28T05:26:24.914Z,95032.00
2022-07-28T05:31:27.048Z,95039.00
2022-07-28T05:36:29.084Z,95029.00
2022-07-28T05:41:31.061Z,95032.00
2022-07-28T05:46:33.375Z,95056.00
2022-07-28T05:51:41.232Z,95041.00
2022-07-28T05:56:47.095Z,95061.00
2022-07-28T06:01:52.116Z,95051.00
2022-07-28T06:06:54.100Z,95059.00
2022-07-28T06:11:56.254Z,95069.00
2022-07-28T06:16:58.332Z,95063.00
2022-07-28T06:22:00.494Z,95050.00
2022-07-28T06:27:03.109Z,95086.00
2022-07-28T06:32:05.699Z,95071.00
2022-07-28T06:37:07.688Z,95078.00
2022-07-28T06:42:09.667Z,95077.00
2022-07-28T06:47:11.706Z,95096.00
2022-07-28T06:52:13.682Z,95093.00
2022-07-28T06:57:15.675Z,95095.00
2022-07-28T07:02:19.312Z,95089.00
2022-07-28T07:07:22.618Z,95085.00
2022-07-28T07:12:24.707Z,95091.00
2022-07-28T07:17:26.656Z,95086.00
2022-07-28T07:22:28.653Z,95077.00
2022-07-28T07:27:30.600Z,95069.00
2022-07-28T07:32:32.781Z,95081.00
2022-07-28T07:37:35.071Z,95085.00
2022-07-28T07:42:37.700Z,95080.00
2022-07-28T07:47:39.774Z,95091.00
2022-07-28T07:52:41.907Z,95066.00
2022-07-28T07:57:44.708Z,95085.00
2022-07-28T08:02:47.110Z,95065.00
2022-07-28T08:07:49.065Z,95065.00
2022-07-28T08:12:51.067Z,95073.00
2022-07-28T08:17:53.121Z,95055.00
2022-07-28T08:22:57.180Z,95064.00
2022-07-28T08:27:59.140Z,95078.00
2022-07-28T08:33:02.782Z,95052.00
2022-07-28T08:38:06.211Z,95072.00
2022-07-28T08:43:26.354Z,95065.00
2022-07-28T08:48:33.264Z,95071.00
2022-07-28T08:53:38.191Z,95068.00
2022-07-28T08:58:40.299Z,95070.00
2022-07-28T09:03:42.838Z,95054.00
2022-07-28T09:08:44.899Z,95078.00
2022-07-28T09:13:50.889Z,95066.00
2022-07-28T09:18:55.622Z,95084.00
2022-07-28T09:23:58.319Z,95064.00
2022-07-28T09:29:02.378Z,95088.00
2022-07-28T09:34:05.761Z,95091.00
2022-07-28T09:39:08.426Z,95069.00
2022-07-28T09:44:19.916Z,95068.00
2022-07-28T09:49:45.056Z,95084.00
2022-07-28T09:55:06.514Z,95079.00
2022-07-28T10:00:25.015Z,95062.00
2022-07-28T10:05:40.822Z,95058.00
2022-07-28T10:10:42.919Z,95043.00
2022-07-28T10:16:10.824Z,95047.00
2022-07-28T10:21:16.903Z,95016.00
2022-07-28T10:26:28.846Z,94988.00
2022-07-28T10:31:58.717Z,94989.00
2022-07-28T10:37:05.208Z,95004.00
2022-07-28T10:42:12.481Z,94980.00
2022-07-28T10:47:18.364Z,95000.00
2022-07-28T10:52:47.308Z,95006.00
2022-07-28T10:58:11.609Z,95015.00
2022-07-28T11:03:44.331Z,95015.00
2022-07-28T11:08:47.609Z,95001.00
2022-07-28T11:13:50.405Z,95001.00
2022-07-28T11:19:41.955Z,95003.00
2022-07-28T11:24:58.037Z,95033.00
2022-07-28T11:30:00.416Z,95014.00
2022-07-28T11:35:10.250Z,95040.00
2022-07-28T11:40:46.340Z,95027.00
2022-07-28T11:45:56.345Z,95032.00
2022-07-28T11:51:04.802Z,95026.00
2022-07-28T11:56:12.510Z,95018.00
2022-07-28T12:01:20.021Z,95015.00
2022-07-28T12:06:29.323Z,95006.00
2022-07-28T12:11:42.877Z,95005.00
2022-07-28T12:16:46.250Z,95005.00
2022-07-28T12:21:55.698Z,95003.00
2022-07-28T12:27:03.484Z,94991.00
2022-07-28T12:32:09.760Z,94993.00
2022-07-28T12:37:14.059Z,94994.00
2022-07-28T12:42:16.288Z,94968.00
2022-07-28T12:47:28.045Z,94980.00
2022-07-28T12:52:30.040Z,94985.00
2022-07-28T12:57:50.315Z,94981.00
2022-07-28T13:02:58.411Z,94965.00
2022-07-28T13:08:05.883Z,94950.00
2022-07-28T13:13:08.231Z,94947.00
2022-07-28T13:18:10.360Z,94971.00
2022-07-28T13:23:12.303Z,94922.00
2022-07-28T13:28:27.598Z,94923.00
2022-07-28T13:33:29.779Z,94930.00
2022-07-28T13:38:32.993Z,94923.00
2022-07-28T13:43:36.240Z,94923.00
2022-07-28T13:49:00.090Z,94940.00
2022-07-28T13:54:02.429Z,94874.00
2022-07-28T13:59:09.739Z,94918.00
2022-07-28T14:04:17.420Z,94932.00
2022-07-28T14:09:21.431Z,94936.00
2022-07-28T14:14:25.161Z,94942.00
2022-07-28T14:19:38.356Z,94914.00
2022-07-28T14:24:44.747Z,94936.00
2022-07-28T14:29:46.950Z,94919.00
2022-07-28T14:34:48.934Z,94928.00
2022-07-28T14:39:51.611Z,94913.00
2022-07-28T14:44:53.757Z,94923.00
2022-07-28T14:49:58.138Z,94911.00
2022-07-28T14:55:00.810Z,94895.00
2022-07-28T15:00:06.783Z,94900.00
2022-07-28T15:05:09.909Z,94894.00
2022-07-28T15:10:11.874Z,94912.00
2022-07-28T15:15:14.221Z,94914.00
2022-07-28T15:20:16.378Z,94915.00
2022-07-28T15:25:18.388Z,94886.00
2022-07-28T15:30:20.487Z,94907.00
2022-07-28T15:35:23.271Z,94867.00
2022-07-28T15:40:25.326Z,94895.00
2022-07-28T15:45:27.651Z,94883.00
2022-07-28T15:50:30.323Z,94865.00
2022-07-28T15:55:32.315Z,94871.00
2022-07-28T16:00:35.074Z,94870.00
2022-07-28T16:05:37.049Z,94878.00
2022-07-28T16:10:38.948Z,94866.00
2022-07-28T16:15:41.601Z,94881.00
2022-07-28T16:20:45.269Z,94868.00
2022-07-28T16:25:47.206Z,94856.00
2022-07-28T16:30:49.262Z,94844.00
2022-07-28T16:35:52.315Z,94869.00
2022-07-28T16:40:57.217Z,94868.00
2022-07-28T16:45:59.233Z,94858.00
2022-07-28T16:51:02.771Z,94864.00
2022-07-28T16:56:05.176Z,94860.00
2022-07-28T17:01:08.738Z,94852.00
2022-07-28T17:06:10.813Z,94861.00
2022-07-28T17:11:12.739Z,94857.00
2022-07-28T17:16:14.882Z,94862.00
2022-07-28T17:21:17.941Z,94841.00
2022-07-28T17:31:43.395Z,94869.00
2022-07-28T17:36:45.686Z,94876.00
2022-07-28T17:41:47.628Z,94879.00
2022-07-28T17:46:50.737Z,94892.00
2022-07-28T17:51:52.751Z,94895.00
2022-07-28T17:56:56.664Z,94878.00
2022-07-28T18:01:58.658Z,94901.00
2022-07-28T18:07:00.644Z,94908.00
2022-07-28T18:12:02.713Z,94884.00
2022-07-28T18:17:04.639Z,94913.00
2022-07-28T18:22:06.846Z,94902.00
2022-07-28T18:27:08.755Z,94906.00
2022-07-28T18:32:12.168Z,94895.00
2022-07-28T18:37:14.128Z,94891.00
2022-07-28T18:42:16.108Z,94884.00
2022-07-28T18:47:18.313Z,94893.00
2022-07-28T18:52:20.513Z,94907.00
2022-07-28T18:57:22.531Z,94915.00
2022-07-28T19:02:26.564Z,94906.00
2022-07-28T19:07:28.890Z,94902.00
2022-07-28T19:12:31.480Z,94892.00
2022-07-28T19:17:34.061Z,94899.00
2022-07-28T19:22:40.707Z,94938.00
